Time;durP1;ratioP1;P1;durP2;ratioP2;P2;SDS_P1;SDS_P2;PMS_P1;PMS_P2;Temp;Humidity;BMP_temperature;BMP_pressure;BME280_temperature;BME280_humidity;BME280_pressure;Samples;Min_cycle;Max_cycle;Signal;HPM_P1;HPM_P2
2024/02/17 06:43:04;;;;;;;7.88;5.97;;;;;;;;;;10543969;27;20418;-85
2024/02/17 06:48:11;;;;;;;9.20;6.20;;;;;;;;;;10543036;28;20028;-86
2024/02/17 06:53:33;;;;;;;14.73;9.27;;;;;;;;;;10542916;28;20043;-85
2024/02/17 06:58:34;;;;;;;13.88;9.27;;;;;;;;;;10545943;28;20048;-85
2024/02/17 07:03:35;;;;;;;;;;;;;;;;;;10544599;28;20017;-85
2024/02/17 07:08:36;;;;;;;12.77;8.90;;;;;;;;;;10543234;28;19908;-86
2024/02/17 07:13:37;;;;;;;5.13;3.33;;;;;;;;;;10543717;28;20028;-85
2024/02/17 07:18:39;;;;;;;7.22;4.50;;;;;;;;;;10548269;28;20032;-85
2024/02/17 07:23:40;;;;;;;7.05;4.65;;;;;;;;;;10543498;28;20435;-85
2024/02/17 07:28:41;;;;;;;8.93;5.32;;;;;;;;;;10557735;28;20040;-84
2024/02/17 07:33:46;;;;;;;7.50;4.90;;;;;;;;;;10558053;28;20027;-85
2024/02/17 07:38:47;;;;;;;7.93;5.55;;;;;;;;;;10541822;28;20040;-85
2024/02/17 07:43:49;;;;;;;9.23;6.57;;;;;;;;;;10543648;28;20036;-85
2024/02/17 07:48:58;;;;;;;10.88;7.20;;;;;;;;;;10548726;28;20039;-84
2024/02/17 07:53:59;;;;;;;14.05;11.35;;;;;;;;;;10520655;28;20040;-84
2024/02/17 07:59:00;;;;;;;5.25;2.58;;;;;;;;;;10522071;28;20124;-83
2024/02/17 08:04:01;;;;;;;8.57;5.80;;;;;;;;;;10532521;28;20032;-83
2024/02/17 08:09:06;;;;;;;6.45;4.70;;;;;;;;;;10535128;28;20031;-85
2024/02/17 08:14:07;;;;;;;6.53;4.82;;;;;;;;;;10525445;28;20032;-85
2024/02/17 08:19:08;;;;;;;7.80;5.22;;;;;;;;;;10519081;28;20021;-85
2024/02/17 08:24:09;;;;;;;7.32;4.55;;;;;;;;;;10514783;28;20024;-87
2024/02/17 08:29:10;;;;;;;13.65;10.73;;;;;;;;;;10514344;28;20028;-87
2024/02/17 08:34:11;;;;;;;6.47;3.72;;;;;;;;;;10529312;28;20033;-86
2024/02/17 08:39:15;;;;;;;6.68;4.13;;;;;;;;;;10512831;28;20033;-86
2024/02/17 08:44:17;;;;;;;7.63;4.68;;;;;;;;;;10506256;28;20024;-86
2024/02/17 08:49:18;;;;;;;9.30;5.93;;;;;;;;;;10509041;28;20025;-86
2024/02/17 08:54:21;;;;;;;9.30;6.47;;;;;;;;;;10507645;28;20115;-86
2024/02/17 08:59:22;;;;;;;7.78;6.30;;;;;;;;;;10527766;28;20021;-85
2024/02/17 09:04:24;;;;;;;14.30;8.23;;;;;;;;;;10520919;28;20024;-86
2024/02/17 09:09:27;;;;;;;10.20;6.38;;;;;;;;;;10502488;28;20028;-86
2024/02/17 09:14:33;;;;;;;10.05;6.78;;;;;;;;;;10503858;28;20523;-85
2024/02/17 09:19:34;;;;;;;7.85;4.75;;;;;;;;;;10505055;28;20476;-86
2024/02/17 09:24:35;;;;;;;6.07;4.10;;;;;;;;;;10506318;28;20076;-86
2024/02/17 09:29:36;;;;;;;14.23;11.02;;;;;;;;;;10509306;28;20127;-86
2024/02/17 09:34:37;;;;;;;8.70;6.50;;;;;;;;;;10509636;28;20074;-86
2024/02/17 09:39:40;;;;;;;9.57;7.70;;;;;;;;;;10513660;28;20464;-86
2024/02/17 09:44:43;;;;;;;11.15;8.73;;;;;;;;;;10512365;28;20032;-86
2024/02/17 09:49:44;;;;;;;9.88;7.85;;;;;;;;;;10506671;28;20047;-87
2024/02/17 09:54:45;;;;;;;10.45;8.45;;;;;;;;;;10505367;28;20500;-86
2024/02/17 09:59:46;;;;;;;15.35;12.73;;;;;;;;;;10504428;28;20021;-86
2024/02/17 10:04:54;;;;;;;12.05;9.82;;;;;;;;;;10504779;28;20024;-86
2024/02/17 10:09:55;;;;;;;8.98;7.63;;;;;;;;;;10507625;28;20044;-86
2024/02/17 10:15:01;;;;;;;12.77;10.23;;;;;;;;;;10509723;28;20029;-86
2024/02/17 10:20:03;;;;;;;10.40;8.18;;;;;;;;;;10506268;28;20472;-86
2024/02/17 10:25:05;;;;;;;12.88;9.30;;;;;;;;;;10508422;28;20017;-87
2024/02/17 10:30:10;;;;;;;9.73;6.75;;;;;;;;;;10510040;28;20108;-86
2024/02/17 10:35:11;;;;;;;7.95;6.18;;;;;;;;;;10512239;28;20043;-86
2024/02/17 10:40:14;;;;;;;11.60;7.07;;;;;;;;;;10507069;28;20036;-87
2024/02/17 10:45:15;;;;;;;10.57;8.60;;;;;;;;;;10507693;28;20020;-86
2024/02/17 10:50:17;;;;;;;12.13;9.32;;;;;;;;;;10502402;28;20403;-87
2024/02/17 10:55:24;;;;;;;13.02;10.00;;;;;;;;;;10522972;28;20056;-86
2024/02/17 11:00:26;;;;;;;8.15;6.90;;;;;;;;;;10518281;28;20086;-86
2024/02/17 11:05:27;;;;;;;10.77;9.43;;;;;;;;;;10509101;28;20021;-85
2024/02/17 11:10:30;;;;;;;10.25;7.80;;;;;;;;;;10506693;28;20024;-85
2024/02/17 11:15:31;;;;;;;11.05;9.23;;;;;;;;;;10505601;28;20044;-84
2024/02/17 11:20:32;;;;;;;10.40;9.15;;;;;;;;;;10505607;28;20032;-83
2024/02/17 11:25:43;;;;;;;8.85;7.65;;;;;;;;;;10511952;28;20013;-85
2024/02/17 11:30:44;;;;;;;;;;;;;;;;;;10521224;28;20032;-85
2024/02/17 11:35:47;;;;;;;;;;;;;;;;;;10519984;28;19927;-85
2024/02/17 11:40:57;;;;;;;10.10;8.23;;;;;;;;;;10518888;28;19931;-83
2024/02/17 11:45:58;;;;;;;;;;;;;;;;;;10516741;28;20017;-85
2024/02/17 11:50:59;;;;;;;;;;;;;;;;;;10519596;28;19904;-85
2024/02/17 11:56:00;;;;;;;;;;;;;;;;;;10519333;28;20299;-85
2024/02/17 12:01:02;;;;;;;;;;;;;;;;;;10521820;28;19908;-86
2024/02/17 12:06:03;;;;;;;8.50;7.40;;;;;;;;;;10530643;28;19930;-85
2024/02/17 12:11:04;;;;;;;9.88;7.72;;;;;;;;;;10544983;28;20020;-86
2024/02/17 12:16:07;;;;;;;19.48;15.43;;;;;;;;;;10530889;28;20029;-86
2024/02/17 12:21:10;;;;;;;8.63;7.63;;;;;;;;;;10539715;28;20033;-85
2024/02/17 12:26:11;;;;;;;9.95;8.30;;;;;;;;;;10529398;28;20086;-86
2024/02/17 12:31:12;;;;;;;11.18;9.98;;;;;;;;;;10517798;28;20071;-87
2024/02/17 12:36:21;;;;;;;16.27;14.20;;;;;;;;;;10521180;28;20029;-85
2024/02/17 12:41:22;;;;;;;14.98;12.27;;;;;;;;;;10520185;28;20063;-86
2024/02/17 12:46:26;;;;;;;16.63;14.65;;;;;;;;;;10525205;28;20089;-86
2024/02/17 12:51:28;;;;;;;9.02;6.20;;;;;;;;;;10526966;28;20020;-85
2024/02/17 12:56:29;;;;;;;16.27;11.10;;;;;;;;;;10514664;28;20020;-85
2024/02/17 13:01:30;;;;;;;29.48;23.67;;;;;;;;;;10520340;28;20039;-86
2024/02/17 13:06:31;;;;;;;21.70;19.40;;;;;;;;;;10515367;28;20055;-85
2024/02/17 13:11:32;;;;;;;16.52;13.57;;;;;;;;;;10516903;28;20035;-86
2024/02/17 13:16:33;;;;;;;25.33;22.58;;;;;;;;;;10538469;28;20139;-84
2024/02/17 13:21:34;;;;;;;12.65;11.07;;;;;;;;;;10520428;28;20442;-85
2024/02/17 13:26:36;;;;;;;11.75;9.90;;;;;;;;;;10513808;28;20028;-85
2024/02/17 13:31:37;;;;;;;15.68;13.27;;;;;;;;;;10512499;28;20025;-85
2024/02/17 13:36:38;;;;;;;11.38;10.27;;;;;;;;;;10510561;28;20469;-85
2024/02/17 13:41:39;;;;;;;13.43;12.02;;;;;;;;;;10511482;28;20119;-85
2024/02/17 13:46:40;;;;;;;18.50;15.15;;;;;;;;;;10513010;28;20016;-85
2024/02/17 13:51:42;;;;;;;15.57;13.93;;;;;;;;;;10513022;28;20056;-85
2024/02/17 13:56:42;;;;;;;17.77;15.88;;;;;;;;;;10513959;28;20539;-85
2024/02/17 14:01:44;;;;;;;14.20;11.60;;;;;;;;;;10511496;28;20130;-85
2024/02/17 14:06:45;;;;;;;32.55;27.45;;;;;;;;;;10508176;28;20119;-86
2024/02/17 14:11:46;;;;;;;24.60;21.95;;;;;;;;;;10506442;28;20048;-86
2024/02/17 14:16:47;;;;;;;18.05;15.85;;;;;;;;;;10509257;28;20138;-85
2024/02/17 14:21:48;;;;;;;19.20;17.20;;;;;;;;;;10508672;28;20518;-86
2024/02/17 14:26:49;;;;;;;16.02;14.27;;;;;;;;;;10513540;28;20031;-86
2024/02/17 14:31:50;;;;;;;25.35;21.88;;;;;;;;;;10517745;28;20031;-86
2024/02/17 14:36:51;;;;;;;21.48;19.20;;;;;;;;;;10528802;28;20050;-86
2024/02/17 14:41:53;;;;;;;12.38;11.10;;;;;;;;;;10519507;28;20115;-84
2024/02/17 14:46:54;;;;;;;11.85;10.68;;;;;;;;;;10527888;28;20084;-86
2024/02/17 14:51:55;;;;;;;13.27;11.88;;;;;;;;;;10522957;28;20087;-85
2024/02/17 14:56:57;;;;;;;12.52;11.13;;;;;;;;;;10512055;28;20040;-85
2024/02/17 15:01:58;;;;;;;12.85;11.07;;;;;;;;;;10514468;28;20040;-85
2024/02/17 15:06:59;;;;;;;13.65;12.15;;;;;;;;;;10519819;28;20112;-85
2024/02/17 15:12:00;;;;;;;10.98;9.85;;;;;;;;;;10519882;28;20066;-85
2024/02/17 15:17:01;;;;;;;9.18;8.27;;;;;;;;;;10530978;28;20056;-85
2024/02/17 15:22:02;;;;;;;8.88;7.70;;;;;;;;;;10532282;28;20021;-85
2024/02/17 15:27:04;;;;;;;9.65;8.65;;;;;;;;;;10521490;28;20021;-87
2024/02/17 15:32:05;;;;;;;10.90;9.00;;;;;;;;;;10533486;28;20076;-87
2024/02/17 15:37:09;;;;;;;9.38;8.02;;;;;;;;;;10538287;28;20024;-85
2024/02/17 15:42:10;;;;;;;9.75;8.65;;;;;;;;;;10533066;28;20096;-86
2024/02/17 15:47:11;;;;;;;10.60;8.70;;;;;;;;;;10522673;28;20054;-86
2024/02/17 15:52:12;;;;;;;10.88;9.77;;;;;;;;;;10525915;28;20025;-86
2024/02/17 15:57:13;;;;;;;8.27;7.38;;;;;;;;;;10549332;28;20019;-85
2024/02/17 16:02:14;;;;;;;15.00;11.60;;;;;;;;;;10547483;28;20039;-85
2024/02/17 16:07:15;;;;;;;8.45;7.55;;;;;;;;;;10520994;28;20031;-84
2024/02/17 16:12:17;;;;;;;10.05;8.52;;;;;;;;;;10508448;28;20021;-84
2024/02/17 16:17:19;;;;;;;9.52;8.50;;;;;;;;;;10509982;28;20021;-84
2024/02/17 16:22:20;;;;;;;9.02;8.07;;;;;;;;;;10537429;28;20056;-84
2024/02/17 16:27:23;;;;;;;8.15;6.07;;;;;;;;;;10548104;28;20040;-84
2024/02/17 16:32:24;;;;;;;18.80;12.40;;;;;;;;;;10552205;28;20171;-84
2024/02/17 16:37:25;;;;;;;7.30;6.15;;;;;;;;;;10550401;28;20055;-86
2024/02/17 16:42:26;;;;;;;10.10;8.30;;;;;;;;;;10522808;28;20054;-85
2024/02/17 16:47:27;;;;;;;9.68;8.30;;;;;;;;;;10518456;28;20024;-85
2024/02/17 16:52:28;;;;;;;8.50;6.95;;;;;;;;;;10517577;28;20071;-85
2024/02/17 16:57:29;;;;;;;8.65;6.93;;;;;;;;;;10522544;28;20044;-85
2024/02/17 17:02:30;;;;;;;7.78;6.50;;;;;;;;;;10538363;28;20039;-85
2024/02/17 17:07:31;;;;;;;7.95;6.28;;;;;;;;;;10515738;28;20410;-85
2024/02/17 17:12:32;;;;;;;6.25;5.57;;;;;;;;;;10513221;28;20028;-85
2024/02/17 17:17:34;;;;;;;8.00;7.03;;;;;;;;;;10514676;28;20035;-85
2024/02/17 17:22:56;;;;;;;6.95;6.07;;;;;;;;;;10512478;28;20036;-84
2024/02/17 17:27:57;;;;;;;7.60;6.25;;;;;;;;;;10511536;28;20024;-85
2024/02/17 17:32:58;;;;;;;8.30;6.85;;;;;;;;;;10504453;28;20028;-85
2024/02/17 17:37:59;;;;;;;9.32;6.03;;;;;;;;;;10504961;28;20051;-84
2024/02/17 17:43:00;;;;;;;6.20;5.40;;;;;;;;;;10506742;28;20024;-85
2024/02/17 17:48:01;;;;;;;6.10;5.50;;;;;;;;;;10505999;28;20051;-84
2024/02/17 17:53:04;;;;;;;6.78;5.15;;;;;;;;;;10510465;28;20112;-85
2024/02/17 17:58:06;;;;;;;5.55;4.97;;;;;;;;;;10515205;28;20020;-85
2024/02/17 18:03:07;;;;;;;8.70;6.00;;;;;;;;;;10515265;28;20032;-85
2024/02/17 18:08:08;;;;;;;6.45;4.75;;;;;;;;;;10514017;28;20040;-85
2024/02/17 18:13:09;;;;;;;5.30;4.72;;;;;;;;;;10521132;28;20020;-84
2024/02/17 18:18:10;;;;;;;6.43;5.40;;;;;;;;;;10528704;28;20088;-85
2024/02/17 18:23:19;;;;;;;5.07;4.28;;;;;;;;;;10515349;28;20107;-85
2024/02/17 18:28:20;;;;;;;8.30;6.15;;;;;;;;;;10510937;28;20052;-85
2024/02/17 18:33:21;;;;;;;7.07;5.10;;;;;;;;;;10512206;28;20056;-86
2024/02/17 18:38:23;;;;;;;5.82;5.00;;;;;;;;;;10511331;28;20441;-86
2024/02/17 18:43:24;;;;;;;5.90;4.57;;;;;;;;;;10515237;28;20013;-85
2024/02/17 18:48:25;;;;;;;4.57;3.97;;;;;;;;;;10516515;28;20469;-85
2024/02/17 18:53:26;;;;;;;4.75;4.03;;;;;;;;;;10517347;28;20035;-86
2024/02/17 18:58:27;;;;;;;5.20;4.30;;;;;;;;;;10533559;28;20034;-85
2024/02/17 19:03:28;;;;;;;5.13;3.83;;;;;;;;;;10516430;28;20020;-85
2024/02/17 19:08:29;;;;;;;5.22;4.60;;;;;;;;;;10513510;28;20042;-86
2024/02/17 19:13:30;;;;;;;4.47;4.00;;;;;;;;;;10514558;28;20080;-86
2024/02/17 19:18:32;;;;;;;5.70;4.40;;;;;;;;;;10511103;28;20044;-85
2024/02/17 19:23:33;;;;;;;6.00;4.65;;;;;;;;;;10509817;28;20031;-85
2024/02/17 19:28:34;;;;;;;7.60;6.22;;;;;;;;;;10530337;28;20017;-85
2024/02/17 19:33:36;;;;;;;5.28;4.70;;;;;;;;;;10522240;28;20021;-85
2024/02/17 19:38:38;;;;;;;6.65;5.78;;;;;;;;;;10518857;28;20452;-85
2024/02/17 19:43:41;;;;;;;6.22;5.20;;;;;;;;;;10511341;28;20032;-85
2024/02/17 19:48:42;;;;;;;6.07;4.80;;;;;;;;;;10508733;28;20025;-85
2024/02/17 19:53:47;;;;;;;5.22;4.10;;;;;;;;;;10514277;28;20476;-85
2024/02/17 19:58:48;;;;;;;6.63;4.70;;;;;;;;;;10511247;28;20051;-85
2024/02/17 20:03:53;;;;;;;5.38;4.57;;;;;;;;;;10514286;28;20021;-85
